createdAt,value
2022-10-22T00:01:14.802Z,11.40
2022-10-22T00:06:16.767Z,11.51
2022-10-22T00:11:19.787Z,11.39
2022-10-22T00:16:21.378Z,11.35
2022-10-22T00:21:23.071Z,11.35
2022-10-22T00:26:24.601Z,11.43
2022-10-22T00:31:26.114Z,11.53
2022-10-22T00:36:27.792Z,11.57
2022-10-22T00:41:29.274Z,11.58
2022-10-22T00:46:31.044Z,11.55
2022-10-22T00:51:35.628Z,11.55
2022-10-22T00:56:38.097Z,11.59
2022-10-22T01:01:39.575Z,11.62
2022-10-22T01:06:41.451Z,11.63
2022-10-22T01:12:08.091Z,11.67
2022-10-22T01:17:24.087Z,11.63
2022-10-22T01:22:34.336Z,11.53
2022-10-22T01:27:54.662Z,11.54
2022-10-22T01:33:01.610Z,11.55
2022-10-22T01:38:06.787Z,11.57
2022-10-22T01:43:10.408Z,11.53
2022-10-22T01:48:28.842Z,11.52
2022-10-22T01:53:40.803Z,11.40
2022-10-22T01:59:06.993Z,11.38
2022-10-22T02:04:21.396Z,11.20
2022-10-22T02:09:26.025Z,11.26
2022-10-22T02:14:30.625Z,11.32
2022-10-22T02:19:56.306Z,11.27
2022-10-22T02:24:57.883Z,11.30
2022-10-22T02:30:06.873Z,11.40
2022-10-22T02:35:13.279Z,11.37
2022-10-22T02:40:15.564Z,11.38
2022-10-22T02:45:19.379Z,11.33
2022-10-22T02:50:21.027Z,11.30
2022-10-22T02:55:22.851Z,11.20
2022-10-22T03:00:24.374Z,11.26
2022-10-22T03:05:25.889Z,11.23
2022-10-22T03:10:27.395Z,11.23
2022-10-22T03:15:28.910Z,11.35
2022-10-22T03:20:30.378Z,11.29
2022-10-22T03:25:34.538Z,11.34
2022-10-22T03:30:36.190Z,11.27
2022-10-22T03:35:44.713Z,11.19
2022-10-22T03:40:46.551Z,11.25
2022-10-22T03:45:48.019Z,11.36
2022-10-22T03:50:49.588Z,11.30
2022-10-22T03:55:51.190Z,11.40
2022-10-22T04:00:52.883Z,11.51
2022-10-22T04:05:54.529Z,11.57
2022-10-22T04:10:56.007Z,11.69
2022-10-22T04:16:07.736Z,11.60
2022-10-22T04:21:11.930Z,11.60
2022-10-22T04:26:13.739Z,11.59
2022-10-22T04:31:18.685Z,11.49
2022-10-22T04:36:20.644Z,11.48
2022-10-22T04:41:28.125Z,11.57
2022-10-22T04:46:32.338Z,11.54
2022-10-22T04:51:33.868Z,11.81
2022-10-22T04:56:35.431Z,11.68
2022-10-22T05:01:42.730Z,11.66
2022-10-22T05:06:45.437Z,11.69
2022-10-22T05:11:49.980Z,11.73
2022-10-22T05:16:52.068Z,11.64
2022-10-22T05:21:55.193Z,11.82
2022-10-22T05:26:58.733Z,11.64
2022-10-22T05:32:00.410Z,11.74
2022-10-22T05:37:02.405Z,11.74
2022-10-22T05:42:04.028Z,11.73
2022-10-22T05:47:05.604Z,11.71
2022-10-22T05:52:07.160Z,11.63
2022-10-22T05:57:08.704Z,11.72
2022-10-22T06:02:10.495Z,11.82
2022-10-22T06:07:15.760Z,11.84
2022-10-22T06:12:17.323Z,11.83
2022-10-22T06:17:19.906Z,11.75
2022-10-22T06:22:21.401Z,11.81
2022-10-22T06:27:23.069Z,11.83
2022-10-22T06:32:24.582Z,11.77
2022-10-22T06:37:26.182Z,11.70
2022-10-22T06:42:28.546Z,11.76
2022-10-22T06:47:31.654Z,11.86
2022-10-22T06:52:35.971Z,11.98
2022-10-22T06:57:38.443Z,12.19
2022-10-22T07:02:40.482Z,12.44
2022-10-22T07:07:42.243Z,12.64
2022-10-22T07:12:43.916Z,12.85
2022-10-22T07:17:45.712Z,13.02
2022-10-22T07:22:47.234Z,13.07
2022-10-22T07:27:48.710Z,13.23
2022-10-22T07:32:50.208Z,13.36
2022-10-22T07:37:51.754Z,13.98
2022-10-22T07:42:53.266Z,14.56
2022-10-22T07:47:54.818Z,14.39
2022-10-22T07:52:58.223Z,15.02
2022-10-22T07:58:00.271Z,15.26
2022-10-22T08:03:01.785Z,15.02
2022-10-22T08:08:03.304Z,14.54
2022-10-22T08:13:05.456Z,14.60
2022-10-22T08:18:06.964Z,14.73
2022-10-22T08:23:08.817Z,14.62
2022-10-22T08:28:10.356Z,14.58
2022-10-22T08:33:11.868Z,14.54
2022-10-22T08:38:13.375Z,14.53
2022-10-22T08:44:01.454Z,14.74
2022-10-22T08:54:58.314Z,14.77
2022-10-22T09:00:26.297Z,15.10
2022-10-22T09:05:39.740Z,15.21
2022-10-22T09:10:49.772Z,15.86
2022-10-22T09:15:58.993Z,16.84
2022-10-22T09:21:19.246Z,16.52
2022-10-22T09:26:23.829Z,16.10
2022-10-22T09:31:30.153Z,16.00
2022-10-22T09:36:32.013Z,16.09
2022-10-22T09:41:33.506Z,16.10
2022-10-22T09:46:39.848Z,16.17
2022-10-22T09:51:54.453Z,15.89
2022-10-22T09:57:16.628Z,16.04
2022-10-22T10:02:43.691Z,15.62
2022-10-22T10:07:47.394Z,15.58
2022-10-22T10:13:00.681Z,15.61
2022-10-22T10:18:28.259Z,15.52
2022-10-22T10:23:29.664Z,15.51
2022-10-22T10:29:03.391Z,15.18
2022-10-22T10:34:38.979Z,15.08
2022-10-22T10:40:19.773Z,14.94
2022-10-22T10:45:55.586Z,14.73
2022-10-22T10:51:18.666Z,14.80
2022-10-22T10:56:35.579Z,14.67
2022-10-22T11:02:02.021Z,14.56
2022-10-22T11:07:11.361Z,14.77
2022-10-22T11:12:48.875Z,15.09
2022-10-22T11:17:53.060Z,15.05
2022-10-22T11:23:18.814Z,14.83
2022-10-22T11:28:33.776Z,15.10
2022-10-22T11:33:48.455Z,15.06
2022-10-22T11:38:51.094Z,16.61
2022-10-22T11:44:05.669Z,16.50
2022-10-22T11:49:13.121Z,16.88
2022-10-22T11:54:37.325Z,17.13
2022-10-22T11:59:44.902Z,16.90
2022-10-22T12:04:47.341Z,17.10
2022-10-22T12:14:58.037Z,17.41
2022-10-22T12:20:07.758Z,17.15
2022-10-22T12:25:17.775Z,16.81
2022-10-22T12:30:23.625Z,17.16
2022-10-22T12:35:29.899Z,17.85
2022-10-22T12:40:35.219Z,17.46
2022-10-22T12:45:37.794Z,17.25
2022-10-22T12:50:50.295Z,17.53
2022-10-22T12:55:56.747Z,16.88
2022-10-22T13:01:02.239Z,16.96
2022-10-22T13:06:19.103Z,16.67
2022-10-22T13:11:20.719Z,16.58
2022-10-22T13:16:25.782Z,16.38
2022-10-22T13:21:38.072Z,16.36
2022-10-22T13:26:39.571Z,16.38
2022-10-22T13:31:46.934Z,16.21
2022-10-22T13:36:49.267Z,16.08
2022-10-22T13:41:51.619Z,16.05
2022-10-22T13:46:53.187Z,16.04
2022-10-22T13:51:54.782Z,16.25
2022-10-22T13:56:56.612Z,16.20
2022-10-22T14:01:58.210Z,16.17
2022-10-22T14:07:03.658Z,16.16
2022-10-22T14:12:14.424Z,16.22
2022-10-22T14:17:17.308Z,16.21
2022-10-22T14:22:20.011Z,16.16
2022-10-22T14:27:21.496Z,16.26
2022-10-22T14:32:23.113Z,16.09
2022-10-22T14:37:24.899Z,16.02
2022-10-22T14:42:26.830Z,16.22
2022-10-22T14:47:28.573Z,16.68
2022-10-22T14:52:30.169Z,16.77
2022-10-22T14:57:31.905Z,16.66
2022-10-22T15:02:33.631Z,16.66
2022-10-22T15:07:35.812Z,16.38
2022-10-22T15:12:37.372Z,16.27
2022-10-22T15:17:39.066Z,16.21
2022-10-22T15:22:41.191Z,16.25
2022-10-22T15:27:44.686Z,16.22
2022-10-22T15:32:48.005Z,16.17
2022-10-22T15:37:52.441Z,15.83
2022-10-22T15:42:53.934Z,15.59
2022-10-22T15:47:55.446Z,15.49
2022-10-22T15:52:57.335Z,15.30
2022-10-22T15:58:01.804Z,15.39
2022-10-22T16:08:33.474Z,15.06
2022-10-22T16:13:37.014Z,14.93
2022-10-22T16:18:38.526Z,14.77
2022-10-22T16:23:42.612Z,14.51
2022-10-22T16:28:45.433Z,14.44
2022-10-22T16:33:49.984Z,14.38
2022-10-22T16:38:51.936Z,14.57
2022-10-22T16:43:55.127Z,14.60
2022-10-22T16:49:02.604Z,14.44
2022-10-22T16:54:08.208Z,14.07
2022-10-22T16:59:15.963Z,14.06
2022-10-22T17:04:17.539Z,13.93
2022-10-22T17:09:19.268Z,13.89
2022-10-22T17:14:21.128Z,14.04
2022-10-22T17:20:25.814Z,14.01
2022-10-22T17:25:42.875Z,13.84
2022-10-22T17:30:44.512Z,13.70
2022-10-22T17:35:46.079Z,13.73
2022-10-22T17:40:47.610Z,13.63
2022-10-22T17:45:49.207Z,13.26
2022-10-22T17:50:51.412Z,12.09
2022-10-22T17:56:02.231Z,12.33
2022-10-22T18:01:04.417Z,12.56
2022-10-22T18:06:07.590Z,12.44
2022-10-22T18:11:11.082Z,12.32
2022-10-22T18:16:12.533Z,12.36
2022-10-22T18:21:15.665Z,12.12
2022-10-22T18:26:20.224Z,12.02
2022-10-22T18:31:26.162Z,11.95
2022-10-22T18:36:28.147Z,11.99
2022-10-22T18:41:31.786Z,11.79
2022-10-22T18:46:35.008Z,11.79
2022-10-22T18:51:36.557Z,11.79
2022-10-22T18:56:39.959Z,11.72
2022-10-22T19:01:41.508Z,11.72
2022-10-22T19:06:45.588Z,11.63
2022-10-22T19:11:49.793Z,11.82
2022-10-22T19:16:51.319Z,11.90
2022-10-22T19:21:53.354Z,11.41
2022-10-22T19:26:54.933Z,11.51
2022-10-22T19:31:56.472Z,11.31
2022-10-22T19:36:58.354Z,11.33
2022-10-22T19:42:01.582Z,11.30
2022-10-22T19:47:04.478Z,11.38
2022-10-22T19:52:06.093Z,11.19
2022-10-22T19:57:08.392Z,10.93
2022-10-22T20:02:18.398Z,10.94
2022-10-22T20:07:19.822Z,10.94
2022-10-22T20:12:21.367Z,10.90
2022-10-22T20:17:22.893Z,10.82
2022-10-22T20:22:49.280Z,10.47
2022-10-22T20:27:50.784Z,10.69
2022-10-22T20:32:52.321Z,10.57
2022-10-22T20:37:53.803Z,10.60
2022-10-22T20:42:55.309Z,10.62
2022-10-22T20:48:02.611Z,10.50
2022-10-22T20:53:04.663Z,10.57
2022-10-22T20:58:06.173Z,10.57
2022-10-22T21:03:07.670Z,10.58
2022-10-22T21:08:10.397Z,10.59
2022-10-22T21:13:12.951Z,10.76
2022-10-22T21:18:14.775Z,10.97
2022-10-22T21:23:16.497Z,10.82
2022-10-22T21:28:18.021Z,10.77
2022-10-22T21:33:19.942Z,10.99
2022-10-22T21:38:22.974Z,11.08
2022-10-22T21:43:24.555Z,11.20
2022-10-22T21:48:26.076Z,11.23
2022-10-22T21:53:27.648Z,11.21
2022-10-22T21:58:29.982Z,11.30
2022-10-22T22:03:31.749Z,11.33
2022-10-22T22:08:34.232Z,11.17
2022-10-22T22:13:36.294Z,11.09
2022-10-22T22:18:39.497Z,11.11
2022-10-22T22:23:43.988Z,11.30
2022-10-22T22:28:45.707Z,11.41
2022-10-22T22:33:47.474Z,11.45
2022-10-22T22:38:48.955Z,11.47
2022-10-22T22:43:50.568Z,11.42
2022-10-22T22:48:52.751Z,11.34
2022-10-22T22:53:54.670Z,11.22
2022-10-22T22:58:57.596Z,11.38
2022-10-22T23:04:05.316Z,11.39
2022-10-22T23:09:10.359Z,11.47
2022-10-22T23:14:16.961Z,11.41
2022-10-22T23:19:21.488Z,11.37
2022-10-22T23:24:26.091Z,11.36
2022-10-22T23:29:33.020Z,11.13
2022-10-22T23:34:41.150Z,10.99
2022-10-22T23:39:42.614Z,10.93
2022-10-22T23:44:44.070Z,10.91
2022-10-22T23:49:45.556Z,10.81
2022-10-22T23:54:48.654Z,11.00
2022-10-22T23:59:50.232Z,11.11
